Time,TemperatureF,DewpointF,PressureIn,WindDirection,WindDirectionDegrees,WindSpeedMPH,WindSpeedGustMPH,Humidity,HourlyPrecipIn,Conditions,Clouds,dailyrainin,SolarRadiationWatts/m^2,SoftwareType,DateUTC
2013-01-21 00:00:00,34.1,31.5,29.37,East,86,2.0,4.0,90,0.00,CLR,,0.00,0.0,WeatherDisplay:10.37,2013-01-21 00:00:00,
2013-01-21 00:10:00,34.0,31.4,29.37,East,86,1.0,3.0,90,0.00,CLR,,0.00,0.0,WeatherDisplay:10.37,2013-01-21 00:10:00,
2013-01-21 00:15:00,34.0,31.3,29.37,East,86,1.0,3.0,90,0.00,CLR,,0.00,0.0,WeatherDisplay:10.37,2013-01-21 00:15:00,
2013-01-21 00:20:00,33.9,31.3,29.36,East,86,0.0,4.0,90,0.00,CLR,,0.00,0.0,WeatherDisplay:10.37,2013-01-21 00:20:00,
2013-01-21 00:30:00,33.9,31.3,29.36,East,86,2.0,3.0,90,0.00,CLR,,0.00,0.0,WeatherDisplay:10.37,2013-01-21 00:30:00,
2013-01-21 00:40:00,33.9,31.3,29.36,East,86,1.0,3.0,90,0.00,CLR,,0.00,0.0,WeatherDisplay:10.37,2013-01-21 00:40:00,
2013-01-21 00:50:00,33.9,31.3,29.36,East,86,0.0,2.0,90,0.00,CLR,,0.00,0.0,WeatherDisplay:10.37,2013-01-21 00:50:00,
2013-01-21 01:00:00,33.8,31.5,29.36,East,86,0.0,1.0,91,0.00,CLR,,0.00,0.0,WeatherDisplay:10.37,2013-01-21 01:00:00,
2013-01-21 01:10:00,33.7,31.4,29.36,East,86,2.0,4.0,91,0.00,CLR,,0.00,0.0,WeatherDisplay:10.37,2013-01-21 01:10:00,
2013-01-21 01:15:00,33.8,31.5,29.36,East,86,0.0,3.0,91,0.00,CLR,,0.00,0.0,WeatherDisplay:10.37,2013-01-21 01:15:00,
2013-01-21 01:20:00,33.8,31.5,29.36,East,86,0.0,2.0,91,0.00,CLR,,0.00,0.0,WeatherDisplay:10.37,2013-01-21 01:20:00,
2013-01-21 01:30:00,33.9,31.6,29.36,East,86,2.0,3.0,91,0.00,CLR,,0.00,0.0,WeatherDisplay:10.37,2013-01-21 01:30:00,
2013-01-21 01:40:00,34.1,32.0,29.36,East,86,2.0,4.0,92,0.00,CLR,,0.00,0.0,WeatherDisplay:10.37,2013-01-21 01:40:00,
2013-01-21 01:50:00,34.2,31.9,29.36,East,86,1.0,4.0,91,0.00,CLR,,0.00,0.0,WeatherDisplay:10.37,2013-01-21 01:50:00,
2013-01-21 02:00:00,34.3,31.9,29.36,East,86,1.0,3.0,91,0.00,CLR,,0.00,0.0,WeatherDisplay:10.37,2013-01-21 02:00:00,
2013-01-21 02:10:00,34.2,31.8,29.35,East,86,1.0,2.0,91,0.00,CLR,,0.00,0.0,WeatherDisplay:10.37,2013-01-21 02:10:00,
2013-01-21 02:15:00,34.2,31.8,29.35,East,86,1.0,3.0,91,0.00,CLR,,0.00,0.0,WeatherDisplay:10.37,2013-01-21 02:15:00,
2013-01-21 02:20:00,34.2,31.8,29.35,East,86,0.0,3.0,91,0.00,CLR,,0.00,0.0,WeatherDisplay:10.37,2013-01-21 02:20:00,
2013-01-21 02:25:00,34.2,31.8,29.35,East,86,0.0,2.0,91,0.00,CLR,,0.00,0.0,WeatherDisplay:10.37,2013-01-21 02:25:00,
2013-01-21 02:35:00,34.1,31.8,29.35,East,86,0.0,3.0,91,0.00,CLR,,0.00,0.0,WeatherDisplay:10.37,2013-01-21 02:35:00,
2013-01-21 02:40:00,34.2,31.8,29.35,East,86,2.0,5.0,91,0.00,CLR,,0.00,0.0,WeatherDisplay:10.37,2013-01-21 02:40:00,
2013-01-21 02:45:00,34.2,31.8,29.35,East,86,3.0,5.0,91,0.00,CLR,,0.00,0.0,WeatherDisplay:10.37,2013-01-21 02:45:00,
2013-01-21 02:50:00,34.3,31.9,29.35,East,86,0.0,2.0,91,0.00,CLR,,0.00,0.0,WeatherDisplay:10.37,2013-01-21 02:50:00,
2013-01-21 03:00:00,34.3,31.9,29.35,East,86,2.0,6.0,91,0.00,CLR,,0.00,0.0,WeatherDisplay:10.37,2013-01-21 03:00:00,
2013-01-21 03:10:00,34.4,32.0,29.35,East,86,1.0,5.0,91,0.00,CLR,,0.00,0.0,WeatherDisplay:10.37,2013-01-21 03:10:00,
2013-01-21 03:15:00,34.4,32.0,29.35,East,86,1.0,4.0,91,0.00,CLR,,0.00,0.0,WeatherDisplay:10.37,2013-01-21 03:15:00,
2013-01-21 03:20:00,34.4,32.0,29.35,East,86,2.0,5.0,91,0.00,CLR,,0.00,0.0,WeatherDisplay:10.37,2013-01-21 03:20:00,
2013-01-21 03:30:00,34.4,32.1,29.35,East,86,0.0,4.0,91,0.00,CLR,,0.00,0.0,WeatherDisplay:10.37,2013-01-21 03:30:00,
2013-01-21 03:40:00,34.4,32.1,29.35,East,86,1.0,5.0,91,0.00,CLR,,0.00,0.0,WeatherDisplay:10.37,2013-01-21 03:40:00,
2013-01-21 03:45:00,34.5,32.1,29.35,East,86,1.0,3.0,91,0.00,CLR,,0.00,0.0,WeatherDisplay:10.37,2013-01-21 03:45:00,
2013-01-21 03:50:00,34.5,32.1,29.35,East,86,2.0,5.0,91,0.00,CLR,,0.00,0.0,WeatherDisplay:10.37,2013-01-21 03:50:00,
2013-01-21 03:55:00,34.5,32.1,29.35,East,86,1.0,4.0,91,0.00,CLR,,0.00,0.0,WeatherDisplay:10.37,2013-01-21 03:55:00,
2013-01-21 04:00:00,34.5,32.1,29.35,East,86,0.0,4.0,91,0.00,CLR,,0.00,0.0,WeatherDisplay:10.37,2013-01-21 04:00:00,
2013-01-21 04:10:00,34.5,32.1,29.35,East,86,1.0,4.0,91,0.00,CLR,,0.00,0.0,WeatherDisplay:10.37,2013-01-21 04:10:00,
2013-01-21 04:15:00,34.5,32.1,29.35,East,86,1.0,5.0,91,0.00,CLR,,0.00,0.0,WeatherDisplay:10.37,2013-01-21 04:15:00,
2013-01-21 04:20:00,34.5,32.1,29.35,East,86,1.0,5.0,91,0.00,CLR,,0.00,0.0,WeatherDisplay:10.37,2013-01-21 04:20:00,
2013-01-21 04:30:00,34.5,32.2,29.36,East,86,2.0,4.0,91,0.00,CLR,,0.00,0.0,WeatherDisplay:10.37,2013-01-21 04:30:00,
2013-01-21 04:40:00,34.5,32.1,29.36,East,86,1.0,3.0,91,0.00,CLR,,0.00,0.0,WeatherDisplay:10.37,2013-01-21 04:40:00,
2013-01-21 04:50:00,34.5,32.1,29.36,East,86,0.0,2.0,91,0.00,CLR,,0.00,0.0,WeatherDisplay:10.37,2013-01-21 04:50:00,
2013-01-21 05:05:00,34.4,32.0,29.36,East,86,1.0,3.0,91,0.00,CLR,,0.00,0.0,WeatherDisplay:10.37,2013-01-21 05:05:00,
2013-01-21 05:10:00,34.4,32.3,29.36,East,86,1.0,3.0,92,0.00,CLR,,0.00,0.0,WeatherDisplay:10.37,2013-01-21 05:10:00,
2013-01-21 05:15:00,34.4,32.3,29.37,East,86,2.0,3.0,92,0.00,CLR,,0.00,0.0,WeatherDisplay:10.37,2013-01-21 05:15:00,
2013-01-21 05:20:00,34.4,32.3,29.36,East,86,1.0,3.0,92,0.00,CLR,,0.00,0.0,WeatherDisplay:10.37,2013-01-21 05:20:00,
2013-01-21 05:30:00,34.4,32.3,29.36,East,86,0.0,2.0,92,0.00,CLR,,0.00,0.0,WeatherDisplay:10.37,2013-01-21 05:30:00,
2013-01-21 05:40:00,34.4,32.3,29.37,East,86,0.0,3.0,92,0.00,CLR,,0.00,0.0,WeatherDisplay:10.37,2013-01-21 05:40:00,
2013-01-21 05:50:00,34.4,32.3,29.37,East,86,0.0,2.0,92,0.00,CLR,,0.00,0.0,WeatherDisplay:10.37,2013-01-21 05:50:00,
2013-01-21 05:55:00,34.4,32.3,29.37,East,86,0.0,2.0,92,0.00,CLR,,0.00,0.0,WeatherDisplay:10.37,2013-01-21 05:55:00,
2013-01-21 06:00:00,34.4,32.3,29.37,East,86,0.0,1.0,92,0.00,CLR,,0.00,0.0,WeatherDisplay:10.37,2013-01-21 06:00:00,
2013-01-21 06:05:00,34.4,32.3,29.37,East,86,0.0,2.0,92,0.00,CLR,,0.00,0.0,WeatherDisplay:10.37,2013-01-21 06:05:00,
2013-01-21 06:10:00,34.4,32.4,29.37,East,86,0.0,0.0,92,0.00,CLR,,0.00,0.0,WeatherDisplay:10.37,2013-01-21 06:10:00,
2013-01-21 06:15:00,34.4,32.3,29.37,East,86,0.0,0.0,92,0.00,CLR,,0.00,0.0,WeatherDisplay:10.37,2013-01-21 06:15:00,
2013-01-21 06:20:00,34.4,32.3,29.37,East,86,0.0,0.0,92,0.00,CLR,,0.00,0.0,WeatherDisplay:10.37,2013-01-21 06:20:00,
2013-01-21 06:30:00,34.4,32.3,29.37,East,86,0.0,0.0,92,0.00,CLR,,0.00,0.0,WeatherDisplay:10.37,2013-01-21 06:30:00,
2013-01-21 06:40:00,34.3,32.2,29.37,East,86,0.0,0.0,92,0.00,CLR,,0.00,0.0,WeatherDisplay:10.37,2013-01-21 06:40:00,
2013-01-21 06:50:00,34.2,32.1,29.38,East,86,0.0,2.0,92,0.00,CLR,,0.00,0.0,WeatherDisplay:10.37,2013-01-21 06:50:00,
2013-01-21 07:00:00,34.2,32.1,29.38,East,86,0.0,0.0,92,0.00,CLR,,0.00,0.0,WeatherDisplay:10.37,2013-01-21 07:00:00,
2013-01-21 07:10:00,34.2,32.1,29.38,East,86,0.0,1.0,92,0.00,CLR,,0.00,0.0,WeatherDisplay:10.37,2013-01-21 07:10:00,
2013-01-21 07:20:00,34.2,32.1,29.38,East,86,0.0,2.0,92,0.00,CLR,,0.00,0.0,WeatherDisplay:10.37,2013-01-21 07:20:00,
2013-01-21 07:31:00,34.2,32.1,29.38,East,86,1.0,3.0,92,0.00,CLR,,0.00,0.0,WeatherDisplay:10.37,2013-01-21 07:31:00,
2013-01-21 07:40:00,34.2,32.1,29.38,East,86,0.0,2.0,92,0.00,CLR,,0.00,0.0,WeatherDisplay:10.37,2013-01-21 07:40:00,
2013-01-21 07:46:00,34.2,32.1,29.38,East,86,0.0,2.0,92,0.00,CLR,,0.00,0.0,WeatherDisplay:10.37,2013-01-21 07:46:00,
2013-01-21 07:50:00,34.2,32.1,29.38,East,86,0.0,0.0,92,0.00,CLR,,0.00,0.0,WeatherDisplay:10.37,2013-01-21 07:50:00,
2013-01-21 08:01:00,34.2,32.1,29.39,East,86,0.0,0.0,92,0.00,CLR,,0.00,0.0,WeatherDisplay:10.37,2013-01-21 08:01:00,
2013-01-21 08:11:00,34.1,32.0,29.39,East,86,0.0,0.0,92,0.00,OVC,,0.00,0.0,WeatherDisplay:10.37,2013-01-21 08:11:00,
2013-01-21 08:21:00,34.1,32.0,29.39,East,86,0.0,2.0,92,0.00,OVC,,0.00,0.0,WeatherDisplay:10.37,2013-01-21 08:21:00,
2013-01-21 08:31:00,34.1,32.0,29.39,East,86,1.0,3.0,92,0.00,OVC,,0.00,0.0,WeatherDisplay:10.37,2013-01-21 08:31:00,
2013-01-21 08:41:00,34.1,32.0,29.39,East,86,0.0,3.0,92,0.00,OVC,,0.00,0.0,WeatherDisplay:10.37,2013-01-21 08:41:00,
2013-01-21 08:51:00,34.1,32.3,29.39,East,86,0.0,3.0,93,0.00,OVC,,0.00,0.0,WeatherDisplay:10.37,2013-01-21 08:51:00,
2013-01-21 09:01:00,34.2,32.4,29.40,East,86,0.0,2.0,93,0.00,BKN,,0.00,5.0,WeatherDisplay:10.37,2013-01-21 09:01:00,
2013-01-21 09:11:00,34.2,32.4,29.40,East,86,0.0,2.0,93,0.00,BKN,,0.00,7.0,WeatherDisplay:10.37,2013-01-21 09:11:00,
2013-01-21 09:16:00,34.2,32.4,29.40,East,86,1.0,3.0,93,0.00,BKN,,0.00,7.0,WeatherDisplay:10.37,2013-01-21 09:16:00,
2013-01-21 09:21:00,34.2,32.4,29.40,East,86,0.0,3.0,93,0.00,BKN,,0.00,7.0,WeatherDisplay:10.37,2013-01-21 09:21:00,
2013-01-21 09:31:00,34.2,32.4,29.40,East,86,0.0,0.0,93,0.00,BKN,,0.00,21.0,WeatherDisplay:10.37,2013-01-21 09:31:00,
2013-01-21 09:41:00,34.3,32.5,29.40,East,86,0.0,0.0,93,0.00,BKN,,0.00,23.0,WeatherDisplay:10.37,2013-01-21 09:41:00,
2013-01-21 09:51:00,34.4,32.8,29.41,East,86,0.0,3.0,94,0.00,BKN,,0.00,21.0,WeatherDisplay:10.37,2013-01-21 09:51:00,
2013-01-21 10:01:00,34.5,33.0,29.40,East,86,1.0,3.0,94,0.00,BKN,,0.00,23.0,WeatherDisplay:10.37,2013-01-21 10:01:00,
2013-01-21 10:11:00,34.6,33.1,29.40,East,86,1.0,5.0,94,0.00,BKN,,0.00,44.0,WeatherDisplay:10.37,2013-01-21 10:11:00,
2013-01-21 10:16:00,34.6,33.1,29.40,East,86,2.0,3.0,94,0.00,BKN,,0.00,51.0,WeatherDisplay:10.37,2013-01-21 10:16:00,
2013-01-21 10:21:00,34.6,33.1,29.40,East,86,1.0,4.0,94,0.00,BKN,,0.00,51.0,WeatherDisplay:10.37,2013-01-21 10:21:00,
2013-01-21 10:31:00,34.7,32.9,29.40,East,86,0.0,4.0,93,0.00,BKN,,0.00,62.0,WeatherDisplay:10.37,2013-01-21 10:31:00,
2013-01-21 10:41:00,34.9,33.3,29.40,East,86,1.0,4.0,94,0.00,SCT,,0.00,114.0,WeatherDisplay:10.37,2013-01-21 10:41:00,
2013-01-21 10:51:00,35.2,33.7,29.40,East,86,2.0,5.0,94,0.00,FEW,,0.00,125.0,WeatherDisplay:10.37,2013-01-21 10:51:00,
2013-01-21 11:01:00,35.6,34.1,29.40,East,86,3.0,5.0,94,0.00,SCT,,0.00,132.0,WeatherDisplay:10.37,2013-01-21 11:01:00,
2013-01-21 11:11:00,35.8,34.0,29.39,East,86,3.0,6.0,93,0.00,FEW,,0.00,155.0,WeatherDisplay:10.37,2013-01-21 11:11:00,
2013-01-21 11:21:00,36.1,34.2,29.39,East,86,2.0,6.0,93,0.00,SCT,,0.00,158.0,WeatherDisplay:10.37,2013-01-21 11:21:00,
2013-01-21 11:31:00,36.3,34.2,29.39,East,86,3.0,6.0,92,0.00,CLR,,0.00,260.0,WeatherDisplay:10.37,2013-01-21 11:31:00,
2013-01-21 11:41:00,37.0,34.9,29.39,East,86,2.0,6.0,92,0.00,CLR,,0.00,265.0,WeatherDisplay:10.37,2013-01-21 11:41:00,
2013-01-21 11:51:00,37.6,35.0,29.39,East,85,3.0,6.0,90,0.00,CLR,,0.00,272.0,WeatherDisplay:10.37,2013-01-21 11:51:00,
2013-01-21 12:01:00,37.8,34.9,29.38,East,85,1.0,5.0,89,0.00,CLR,,0.00,276.0,WeatherDisplay:10.37,2013-01-21 12:01:00,
2013-01-21 12:11:00,38.2,35.0,29.38,East,85,2.0,5.0,88,0.00,CLR,,0.00,281.0,WeatherDisplay:10.37,2013-01-21 12:11:00,
2013-01-21 12:16:00,38.3,34.8,29.38,East,85,2.0,5.0,87,0.00,CLR,,0.00,285.0,WeatherDisplay:10.37,2013-01-21 12:16:00,
2013-01-21 12:21:00,38.5,35.0,29.38,East,85,1.0,7.0,87,0.00,CLR,,0.00,299.0,WeatherDisplay:10.37,2013-01-21 12:21:00,
2013-01-21 12:31:00,38.9,35.0,29.37,East,84,3.0,6.0,86,0.00,CLR,,0.00,179.0,WeatherDisplay:10.37,2013-01-21 12:31:00,
2013-01-21 12:41:00,38.9,35.1,29.38,East,83,5.0,10.0,86,0.00,CLR,,0.00,179.0,WeatherDisplay:10.37,2013-01-21 12:41:00,
2013-01-21 12:46:00,38.9,35.1,29.37,East,80,3.0,7.0,86,0.00,CLR,,0.00,334.0,WeatherDisplay:10.37,2013-01-21 12:46:00,
2013-01-21 12:51:00,39.0,35.2,29.37,ENE,78,3.0,7.0,86,0.00,CLR,,0.00,360.0,WeatherDisplay:10.37,2013-01-21 12:51:00,
2013-01-21 13:01:00,39.5,35.7,29.37,ENE,76,5.0,7.0,86,0.00,CLR,,0.00,359.0,WeatherDisplay:10.37,2013-01-21 13:01:00,
2013-01-21 13:11:00,39.6,35.5,29.37,ENE,71,1.0,6.0,85,0.00,CLR,,0.00,237.0,WeatherDisplay:10.37,2013-01-21 13:11:00,
2013-01-21 13:16:00,39.7,35.3,29.37,ENE,71,2.0,5.0,84,0.00,CLR,,0.00,283.0,WeatherDisplay:10.37,2013-01-21 13:16:00,
2013-01-21 13:21:00,39.9,35.5,29.36,ENE,71,2.0,7.0,84,0.00,CLR,,0.00,287.0,WeatherDisplay:10.37,2013-01-21 13:21:00,
2013-01-21 13:31:00,40.1,35.4,29.37,ENE,71,1.0,4.0,83,0.00,CLR,,0.00,227.0,WeatherDisplay:10.37,2013-01-21 13:31:00,
2013-01-21 13:41:00,40.6,35.5,29.36,ENE,71,3.0,5.0,82,0.00,CLR,,0.00,146.0,WeatherDisplay:10.37,2013-01-21 13:41:00,
2013-01-21 13:51:00,40.0,34.6,29.36,ENE,71,1.0,4.0,81,0.00,SCT,,0.00,139.0,WeatherDisplay:10.37,2013-01-21 13:51:00,
2013-01-21 14:01:00,39.7,35.0,29.36,ENE,71,1.0,3.0,83,0.00,SCT,,0.00,142.0,WeatherDisplay:10.37,2013-01-21 14:01:00,
2013-01-21 14:11:00,39.8,35.3,29.36,ENE,71,0.0,2.0,84,0.00,SCT,,0.00,134.0,WeatherDisplay:10.37,2013-01-21 14:11:00,
2013-01-21 14:16:00,39.9,35.5,29.36,ENE,71,1.0,3.0,84,0.00,FEW,,0.00,207.0,WeatherDisplay:10.37,2013-01-21 14:16:00,
2013-01-21 14:21:00,40.1,35.7,29.36,ENE,71,2.0,4.0,84,0.00,CLR,,0.00,185.0,WeatherDisplay:10.37,2013-01-21 14:21:00,
2013-01-21 14:31:00,40.2,34.8,29.36,ENE,71,1.0,4.0,81,0.00,FEW,,0.00,98.0,WeatherDisplay:10.37,2013-01-21 14:31:00,
2013-01-21 14:41:00,39.9,34.5,29.36,ENE,71,2.0,5.0,81,0.00,SCT,,0.00,58.0,WeatherDisplay:10.37,2013-01-21 14:41:00,
2013-01-21 14:51:00,39.4,34.0,29.36,ENE,71,1.0,3.0,81,0.00,BKN,,0.00,60.0,WeatherDisplay:10.37,2013-01-21 14:51:00,
2013-01-21 15:01:00,38.9,33.9,29.35,ENE,71,1.0,4.0,82,0.00,BKN,,0.00,56.0,WeatherDisplay:10.37,2013-01-21 15:01:00,
2013-01-21 15:11:00,38.5,33.8,29.35,ENE,71,1.0,3.0,83,0.00,BKN,,0.00,49.0,WeatherDisplay:10.37,2013-01-21 15:11:00,
2013-01-21 15:16:00,38.4,34.0,29.35,ENE,71,1.0,4.0,84,0.00,BKN,,0.00,53.0,WeatherDisplay:10.37,2013-01-21 15:16:00,
2013-01-21 15:21:00,38.3,34.2,29.35,ENE,71,2.0,5.0,85,0.00,BKN,,0.00,62.0,WeatherDisplay:10.37,2013-01-21 15:21:00,
2013-01-21 15:31:00,38.2,34.4,29.35,ENE,71,2.0,6.0,86,0.00,BKN,,0.00,56.0,WeatherDisplay:10.37,2013-01-21 15:31:00,
2013-01-21 15:41:00,38.1,34.6,29.35,ENE,71,3.0,7.0,87,0.00,SCT,,0.00,60.0,WeatherDisplay:10.37,2013-01-21 15:41:00,
2013-01-21 15:51:00,38.0,34.5,29.35,ENE,71,2.0,4.0,87,0.00,SCT,,0.00,49.0,WeatherDisplay:10.37,2013-01-21 15:51:00,
2013-01-21 16:01:00,38.0,34.5,29.35,ENE,71,2.0,3.0,87,0.00,SCT,,0.00,44.0,WeatherDisplay:10.37,2013-01-21 16:01:00,
2013-01-21 16:11:00,38.0,34.5,29.35,ENE,71,1.0,4.0,87,0.00,FEW,,0.00,47.0,WeatherDisplay:10.37,2013-01-21 16:11:00,
2013-01-21 16:16:00,38.1,34.6,29.35,ENE,71,2.0,3.0,87,0.00,CLR,,0.00,51.0,WeatherDisplay:10.37,2013-01-21 16:16:00,
2013-01-21 16:21:00,38.3,34.8,29.35,ENE,71,2.0,5.0,87,0.00,CLR,,0.00,44.0,WeatherDisplay:10.37,2013-01-21 16:21:00,
2013-01-21 16:31:00,38.1,34.3,29.35,ENE,71,2.0,5.0,86,0.00,CLR,,0.00,30.0,WeatherDisplay:10.37,2013-01-21 16:31:00,
2013-01-21 16:41:00,37.8,33.7,29.35,ENE,71,2.0,6.0,85,0.00,FEW,,0.00,16.0,WeatherDisplay:10.37,2013-01-21 16:41:00,
2013-01-21 16:51:00,37.4,33.6,29.35,ENE,71,1.0,5.0,86,0.00,SCT,,0.00,5.0,WeatherDisplay:10.37,2013-01-21 16:51:00,
2013-01-21 17:01:00,37.2,33.7,29.35,ENE,71,0.0,3.0,87,0.00,CLR,,0.00,0.0,WeatherDisplay:10.37,2013-01-21 17:01:00,
2013-01-21 17:11:00,37.0,33.8,29.36,ENE,71,0.0,2.0,88,0.00,CLR,,0.00,0.0,WeatherDisplay:10.37,2013-01-21 17:11:00,
2013-01-21 17:16:00,36.9,33.7,29.35,ENE,71,1.0,3.0,88,0.00,CLR,,0.00,0.0,WeatherDisplay:10.37,2013-01-21 17:16:00,
2013-01-21 17:21:00,36.8,33.6,29.35,ENE,71,1.0,2.0,88,0.00,CLR,,0.00,0.0,WeatherDisplay:10.37,2013-01-21 17:21:00,
2013-01-21 17:31:00,36.5,33.6,29.35,ENE,71,0.0,2.0,89,0.00,CLR,,0.00,0.0,WeatherDisplay:10.37,2013-01-21 17:31:00,
2013-01-21 17:41:00,36.3,33.6,29.35,ENE,71,1.0,3.0,90,0.00,CLR,,0.00,0.0,WeatherDisplay:10.37,2013-01-21 17:41:00,
2013-01-21 17:46:00,36.3,33.6,29.35,ENE,71,2.0,6.0,90,0.00,CLR,,0.00,0.0,WeatherDisplay:10.37,2013-01-21 17:46:00,
2013-01-21 17:51:00,36.2,33.5,29.35,ENE,71,2.0,5.0,90,0.00,CLR,,0.00,0.0,WeatherDisplay:10.37,2013-01-21 17:51:00,
2013-01-21 18:01:00,36.1,33.5,29.35,ENE,71,1.0,3.0,90,0.00,CLR,,0.00,0.0,WeatherDisplay:10.37,2013-01-21 18:01:00,
2013-01-21 18:11:00,35.9,33.5,29.35,ENE,71,1.0,3.0,91,0.00,CLR,,0.00,0.0,WeatherDisplay:10.37,2013-01-21 18:11:00,
2013-01-21 18:16:00,35.8,33.4,29.35,ENE,71,0.0,0.0,91,0.00,CLR,,0.00,0.0,WeatherDisplay:10.37,2013-01-21 18:16:00,
2013-01-21 18:21:00,35.6,33.2,29.35,ENE,71,0.0,0.0,91,0.00,CLR,,0.00,0.0,WeatherDisplay:10.37,2013-01-21 18:21:00,
2013-01-21 18:26:00,35.4,32.8,29.35,ENE,71,0.0,0.0,90,0.00,CLR,,0.00,0.0,WeatherDisplay:10.37,2013-01-21 18:26:00,
2013-01-21 18:31:00,35.1,32.5,29.35,ENE,71,0.0,0.0,90,0.00,CLR,,0.00,0.0,WeatherDisplay:10.37,2013-01-21 18:31:00,
2013-01-21 18:41:00,34.6,32.2,29.35,ENE,71,0.0,0.0,91,0.00,CLR,,0.00,0.0,WeatherDisplay:10.37,2013-01-21 18:41:00,
2013-01-21 18:51:00,34.0,31.3,29.35,ENE,71,0.0,0.0,90,0.00,CLR,,0.00,0.0,WeatherDisplay:10.37,2013-01-21 18:51:00,
2013-01-21 19:01:00,32.8,30.0,29.35,ENE,71,0.0,0.0,89,0.00,CLR,,0.00,0.0,WeatherDisplay:10.37,2013-01-21 19:01:00,
2013-01-21 19:11:00,32.0,29.4,29.35,ENE,71,0.0,0.0,90,0.00,CLR,,0.00,0.0,WeatherDisplay:10.37,2013-01-21 19:11:00,
2013-01-21 19:16:00,31.6,29.0,29.35,ENE,71,0.0,0.0,90,0.00,CLR,,0.00,0.0,WeatherDisplay:10.37,2013-01-21 19:16:00,
2013-01-21 19:21:00,31.2,28.7,29.36,ENE,71,0.0,0.0,90,0.00,CLR,,0.00,0.0,WeatherDisplay:10.37,2013-01-21 19:21:00,
2013-01-21 19:31:00,30.6,28.3,29.35,ENE,71,0.0,0.0,91,0.00,CLR,,0.00,0.0,WeatherDisplay:10.37,2013-01-21 19:31:00,
2013-01-21 19:41:00,30.1,27.8,29.35,ENE,71,0.0,0.0,91,0.00,CLR,,0.00,0.0,WeatherDisplay:10.37,2013-01-21 19:41:00,
2013-01-21 19:51:00,29.7,27.7,29.35,ENE,71,0.0,0.0,92,0.00,CLR,,0.00,0.0,WeatherDisplay:10.37,2013-01-21 19:51:00,
2013-01-21 20:01:00,29.6,27.8,29.35,ENE,71,0.0,0.0,93,0.00,CLR,,0.00,0.0,WeatherDisplay:10.37,2013-01-21 20:01:00,
2013-01-21 20:11:00,29.5,27.7,29.35,ENE,71,0.0,0.0,93,0.00,CLR,,0.00,0.0,WeatherDisplay:10.37,2013-01-21 20:11:00,
2013-01-21 20:16:00,29.6,27.8,29.35,ENE,71,0.0,2.0,93,0.00,CLR,,0.00,0.0,WeatherDisplay:10.37,2013-01-21 20:16:00,
2013-01-21 20:21:00,29.8,28.3,29.35,ENE,71,0.0,1.0,94,0.00,CLR,,0.00,0.0,WeatherDisplay:10.37,2013-01-21 20:21:00,
2013-01-21 20:31:00,30.2,28.7,29.35,ENE,71,0.0,0.0,94,0.00,CLR,,0.00,0.0,WeatherDisplay:10.37,2013-01-21 20:31:00,
2013-01-21 20:41:00,30.3,28.8,29.35,ENE,71,0.0,0.0,94,0.00,CLR,,0.00,0.0,WeatherDisplay:10.37,2013-01-21 20:41:00,
2013-01-21 20:46:00,30.2,28.7,29.35,ENE,71,0.0,2.0,94,0.00,CLR,,0.00,0.0,WeatherDisplay:10.37,2013-01-21 20:46:00,
2013-01-21 20:51:00,30.1,28.6,29.35,ENE,71,1.0,2.0,94,0.00,CLR,,0.00,0.0,WeatherDisplay:10.37,2013-01-21 20:51:00,
2013-01-21 21:01:00,30.1,28.6,29.36,ENE,71,1.0,2.0,94,0.00,CLR,,0.00,0.0,WeatherDisplay:10.37,2013-01-21 21:01:00,
2013-01-21 21:11:00,30.0,28.5,29.36,ENE,71,0.0,0.0,94,0.00,CLR,,0.00,0.0,WeatherDisplay:10.37,2013-01-21 21:11:00,
2013-01-21 21:16:00,29.8,28.3,29.36,ENE,71,0.0,1.0,94,0.00,CLR,,0.00,0.0,WeatherDisplay:10.37,2013-01-21 21:16:00,
2013-01-21 21:21:00,29.9,28.6,29.36,ENE,71,1.0,2.0,95,0.00,CLR,,0.00,0.0,WeatherDisplay:10.37,2013-01-21 21:21:00,
2013-01-21 21:31:00,29.7,28.1,29.36,ENE,71,0.0,0.0,94,0.00,CLR,,0.00,0.0,WeatherDisplay:10.37,2013-01-21 21:31:00,
2013-01-21 21:41:00,29.2,27.7,29.36,ENE,71,0.0,0.0,94,0.00,CLR,,0.00,0.0,WeatherDisplay:10.37,2013-01-21 21:41:00,
2013-01-21 21:47:00,29.0,27.5,29.36,ENE,71,0.0,0.0,94,0.00,CLR,,0.00,0.0,WeatherDisplay:10.37,2013-01-21 21:47:00,
2013-01-21 21:56:00,28.6,27.1,29.36,ENE,71,0.0,0.0,94,0.00,CLR,,0.00,0.0,WeatherDisplay:10.37,2013-01-21 21:56:00,
2013-01-21 22:01:00,28.5,27.0,29.37,ENE,71,0.0,0.0,94,0.00,CLR,,0.00,0.0,WeatherDisplay:10.37,2013-01-21 22:01:00,
2013-01-21 22:11:00,28.5,27.0,29.37,ENE,71,0.0,0.0,94,0.00,CLR,,0.00,0.0,WeatherDisplay:10.37,2013-01-21 22:11:00,
2013-01-21 22:16:00,28.3,26.8,29.37,ENE,71,0.0,0.0,94,0.00,CLR,,0.00,0.0,WeatherDisplay:10.37,2013-01-21 22:16:00,
2013-01-21 22:21:00,28.2,26.7,29.37,ENE,71,0.0,0.0,94,0.00,CLR,,0.00,0.0,WeatherDisplay:10.37,2013-01-21 22:21:00,
2013-01-21 22:31:00,27.9,26.4,29.37,ENE,71,0.0,0.0,94,0.00,CLR,,0.00,0.0,WeatherDisplay:10.37,2013-01-21 22:31:00,
2013-01-21 22:41:00,27.8,26.6,29.37,ENE,71,0.0,0.0,95,0.00,CLR,,0.00,0.0,WeatherDisplay:10.37,2013-01-21 22:41:00,
2013-01-21 22:46:00,27.7,26.2,29.37,ENE,71,0.0,0.0,94,0.00,CLR,,0.00,0.0,WeatherDisplay:10.37,2013-01-21 22:46:00,
2013-01-21 22:51:00,27.5,26.0,29.37,ENE,71,0.0,0.0,94,0.00,CLR,,0.00,0.0,WeatherDisplay:10.37,2013-01-21 22:51:00,
2013-01-21 23:01:00,27.2,25.7,29.38,ENE,71,0.0,0.0,94,0.00,CLR,,0.00,0.0,WeatherDisplay:10.37,2013-01-21 23:01:00,
2013-01-21 23:11:00,27.1,25.9,29.38,ENE,71,0.0,0.0,95,0.00,CLR,,0.00,0.0,WeatherDisplay:10.37,2013-01-21 23:11:00,
2013-01-21 23:16:00,27.2,26.0,29.38,ENE,71,0.0,0.0,95,0.00,CLR,,0.00,0.0,WeatherDisplay:10.37,2013-01-21 23:16:00,
2013-01-21 23:21:00,27.5,26.5,29.38,ENE,71,0.0,0.0,96,0.00,CLR,,0.00,0.0,WeatherDisplay:10.37,2013-01-21 23:21:00,
2013-01-21 23:31:00,28.0,27.0,29.38,ENE,71,0.0,0.0,96,0.00,CLR,,0.00,0.0,WeatherDisplay:10.37,2013-01-21 23:31:00,
2013-01-21 23:41:00,28.4,27.4,29.38,ENE,71,0.0,1.0,96,0.00,CLR,,0.00,0.0,WeatherDisplay:10.37,2013-01-21 23:41:00,
2013-01-21 23:51:00,29.3,28.3,29.38,ENE,71,0.0,1.0,96,0.00,CLR,,0.00,0.0,WeatherDisplay:10.37,2013-01-21 23:51:00,